sensor_id;sensor_type;location;lat;lon;timestamp;temperature;humidity
42965;DHT22;28604;51.204;22.552;2023-03-01T00:01:05;-1.40;72.80
42965;DHT22;28604;51.204;22.552;2023-03-01T00:03:32;-1.40;71.90
42965;DHT22;28604;51.204;22.552;2023-03-01T00:05:59;-1.40;71.50
42965;DHT22;28604;51.204;22.552;2023-03-01T00:08:26;-1.40;71.00
42965;DHT22;28604;51.204;22.552;2023-03-01T00:13:31;-1.40;70.40
42965;DHT22;28604;51.204;22.552;2023-03-01T00:15:57;-1.50;70.40
42965;DHT22;28604;51.204;22.552;2023-03-01T00:18:23;-1.50;70.50
42965;DHT22;28604;51.204;22.552;2023-03-01T00:20:54;-1.50;70.60
42965;DHT22;28604;51.204;22.552;2023-03-01T00:23:21;-1.50;71.20
42965;DHT22;28604;51.204;22.552;2023-03-01T00:25:47;-1.60;71.60
42965;DHT22;28604;51.204;22.552;2023-03-01T00:28:14;-1.50;71.80
42965;DHT22;28604;51.204;22.552;2023-03-01T00:30:40;-1.60;72.00
42965;DHT22;28604;51.204;22.552;2023-03-01T00:33:06;-1.60;72.40
42965;DHT22;28604;51.204;22.552;2023-03-01T00:35:33;-1.60;72.30
42965;DHT22;28604;51.204;22.552;2023-03-01T00:37:59;-1.60;72.30
42965;DHT22;28604;51.204;22.552;2023-03-01T00:40:26;-1.60;71.80
42965;DHT22;28604;51.204;22.552;2023-03-01T00:42:52;-1.60;71.40
42965;DHT22;28604;51.204;22.552;2023-03-01T00:45:18;-1.60;71.00
42965;DHT22;28604;51.204;22.552;2023-03-01T00:47:45;-1.60;70.70
42965;DHT22;28604;51.204;22.552;2023-03-01T00:50:11;-1.60;71.10
42965;DHT22;28604;51.204;22.552;2023-03-01T00:52:37;-1.70;70.90
42965;DHT22;28604;51.204;22.552;2023-03-01T00:55:04;-1.60;71.50
42965;DHT22;28604;51.204;22.552;2023-03-01T00:57:31;-1.70;71.40
42965;DHT22;28604;51.204;22.552;2023-03-01T00:59:57;-1.70;72.20
42965;DHT22;28604;51.204;22.552;2023-03-01T01:02:23;-1.70;72.70
42965;DHT22;28604;51.204;22.552;2023-03-01T01:04:48;-1.70;72.20
42965;DHT22;28604;51.204;22.552;2023-03-01T01:07:15;-1.70;72.00
42965;DHT22;28604;51.204;22.552;2023-03-01T01:09:41;-1.70;71.60
42965;DHT22;28604;51.204;22.552;2023-03-01T01:12:07;-1.70;72.20
42965;DHT22;28604;51.204;22.552;2023-03-01T01:14:34;-1.70;71.20
42965;DHT22;28604;51.204;22.552;2023-03-01T01:17:00;-1.70;70.90
42965;DHT22;28604;51.204;22.552;2023-03-01T01:19:26;-1.70;71.10
42965;DHT22;28604;51.204;22.552;2023-03-01T01:21:52;-1.70;71.30
42965;DHT22;28604;51.204;22.552;2023-03-01T01:24:18;-1.70;72.20
42965;DHT22;28604;51.204;22.552;2023-03-01T01:26:45;-1.70;71.70
42965;DHT22;28604;51.204;22.552;2023-03-01T01:29:12;-1.70;71.50
42965;DHT22;28604;51.204;22.552;2023-03-01T01:31:40;-1.80;71.80
42965;DHT22;28604;51.204;22.552;2023-03-01T01:34:08;-1.80;71.90
42965;DHT22;28604;51.204;22.552;2023-03-01T01:36:35;-1.70;71.80
42965;DHT22;28604;51.204;22.552;2023-03-01T01:39:02;-1.70;71.50
42965;DHT22;28604;51.204;22.552;2023-03-01T01:41:29;-1.70;71.20
42965;DHT22;28604;51.204;22.552;2023-03-01T01:44:25;-1.80;70.90
42965;DHT22;28604;51.204;22.552;2023-03-01T01:47:01;-1.80;70.60
42965;DHT22;28604;51.204;22.552;2023-03-01T01:49:40;-1.80;70.80
42965;DHT22;28604;51.204;22.552;2023-03-01T01:52:18;-1.80;70.50
42965;DHT22;28604;51.204;22.552;2023-03-01T01:57:37;-1.80;70.00
42965;DHT22;28604;51.204;22.552;2023-03-01T02:00:07;-1.80;70.30
42965;DHT22;28604;51.204;22.552;2023-03-01T02:02:40;-1.90;70.00
42965;DHT22;28604;51.204;22.552;2023-03-01T02:05:14;-1.90;69.90
42965;DHT22;28604;51.204;22.552;2023-03-01T02:07:41;-1.90;69.80
42965;DHT22;28604;51.204;22.552;2023-03-01T02:10:08;-1.90;70.20
42965;DHT22;28604;51.204;22.552;2023-03-01T02:12:36;-1.90;70.60
42965;DHT22;28604;51.204;22.552;2023-03-01T02:15:02;-1.90;70.80
42965;DHT22;28604;51.204;22.552;2023-03-01T02:17:28;-2.00;71.70
42965;DHT22;28604;51.204;22.552;2023-03-01T02:20:07;-2.00;72.50
42965;DHT22;28604;51.204;22.552;2023-03-01T02:22:37;-2.00;72.30
42965;DHT22;28604;51.204;22.552;2023-03-01T02:30:47;-2.00;74.90
42965;DHT22;28604;51.204;22.552;2023-03-01T02:33:35;-2.00;74.80
42965;DHT22;28604;51.204;22.552;2023-03-01T02:36:04;-2.00;75.50
42965;DHT22;28604;51.204;22.552;2023-03-01T02:38:32;-2.00;75.30
42965;DHT22;28604;51.204;22.552;2023-03-01T02:40:58;-2.00;75.70
42965;DHT22;28604;51.204;22.552;2023-03-01T02:43:29;-2.00;75.00
42965;DHT22;28604;51.204;22.552;2023-03-01T02:45:59;-2.00;74.50
42965;DHT22;28604;51.204;22.552;2023-03-01T02:48:28;-2.00;74.00
42965;DHT22;28604;51.204;22.552;2023-03-01T02:53:55;-2.00;74.30
42965;DHT22;28604;51.204;22.552;2023-03-01T02:56:22;-2.00;74.30
42965;DHT22;28604;51.204;22.552;2023-03-01T02:58:48;-2.00;74.80
42965;DHT22;28604;51.204;22.552;2023-03-01T03:01:20;-2.00;74.00
42965;DHT22;28604;51.204;22.552;2023-03-01T03:03:47;-2.00;73.40
42965;DHT22;28604;51.204;22.552;2023-03-01T03:06:13;-2.00;72.90
42965;DHT22;28604;51.204;22.552;2023-03-01T03:08:41;-2.00;72.70
42965;DHT22;28604;51.204;22.552;2023-03-01T03:11:07;-2.00;72.20
42965;DHT22;28604;51.204;22.552;2023-03-01T03:13:34;-2.10;72.00
42965;DHT22;28604;51.204;22.552;2023-03-01T03:16:02;-2.10;72.40
42965;DHT22;28604;51.204;22.552;2023-03-01T03:18:29;-2.10;73.00
42965;DHT22;28604;51.204;22.552;2023-03-01T03:20:55;-2.20;72.50
42965;DHT22;28604;51.204;22.552;2023-03-01T03:23:21;-2.10;73.80
42965;DHT22;28604;51.204;22.552;2023-03-01T03:25:50;-2.20;73.10
42965;DHT22;28604;51.204;22.552;2023-03-01T03:28:17;-2.20;73.60
42965;DHT22;28604;51.204;22.552;2023-03-01T03:30:43;-2.20;73.50
42965;DHT22;28604;51.204;22.552;2023-03-01T03:33:11;-2.20;73.80
42965;DHT22;28604;51.204;22.552;2023-03-01T03:35:43;-2.20;74.80
42965;DHT22;28604;51.204;22.552;2023-03-01T03:38:11;-2.20;75.20
42965;DHT22;28604;51.204;22.552;2023-03-01T03:40:44;-2.20;74.30
42965;DHT22;28604;51.204;22.552;2023-03-01T03:43:12;-2.20;74.70
42965;DHT22;28604;51.204;22.552;2023-03-01T03:45:38;-2.20;74.30
42965;DHT22;28604;51.204;22.552;2023-03-01T03:48:08;-2.20;74.70
42965;DHT22;28604;51.204;22.552;2023-03-01T03:50:35;-2.20;75.10
42965;DHT22;28604;51.204;22.552;2023-03-01T03:53:03;-2.20;76.40
42965;DHT22;28604;51.204;22.552;2023-03-01T03:55:29;-2.20;76.70
42965;DHT22;28604;51.204;22.552;2023-03-01T03:58:01;-2.20;76.70
42965;DHT22;28604;51.204;22.552;2023-03-01T04:00:34;-2.10;76.90
42965;DHT22;28604;51.204;22.552;2023-03-01T04:03:01;-2.10;76.40
42965;DHT22;28604;51.204;22.552;2023-03-01T04:05:27;-2.10;77.00
42965;DHT22;28604;51.204;22.552;2023-03-01T04:07:53;-2.10;76.70
42965;DHT22;28604;51.204;22.552;2023-03-01T04:10:28;-2.10;77.90
42965;DHT22;28604;51.204;22.552;2023-03-01T04:12:54;-2.10;77.30
42965;DHT22;28604;51.204;22.552;2023-03-01T04:15:24;-2.00;77.50
42965;DHT22;28604;51.204;22.552;2023-03-01T04:17:52;-2.10;78.20
42965;DHT22;28604;51.204;22.552;2023-03-01T04:20:21;-2.10;77.90
42965;DHT22;28604;51.204;22.552;2023-03-01T04:23:02;-2.10;77.20
42965;DHT22;28604;51.204;22.552;2023-03-01T04:25:38;-2.10;78.00
42965;DHT22;28604;51.204;22.552;2023-03-01T04:28:05;-2.10;78.30
42965;DHT22;28604;51.204;22.552;2023-03-01T04:30:32;-2.10;78.60
42965;DHT22;28604;51.204;22.552;2023-03-01T04:33:06;-2.10;79.10
42965;DHT22;28604;51.204;22.552;2023-03-01T04:35:33;-2.10;79.20
42965;DHT22;28604;51.204;22.552;2023-03-01T04:38:00;-2.00;79.50
42965;DHT22;28604;51.204;22.552;2023-03-01T04:40:26;-2.00;79.50
42965;DHT22;28604;51.204;22.552;2023-03-01T04:42:52;-2.00;78.70
42965;DHT22;28604;51.204;22.552;2023-03-01T04:45:18;-2.00;79.20
42965;DHT22;28604;51.204;22.552;2023-03-01T04:47:45;-2.00;78.70
42965;DHT22;28604;51.204;22.552;2023-03-01T04:50:14;-2.00;78.60
42965;DHT22;28604;51.204;22.552;2023-03-01T04:52:41;-2.00;78.60
42965;DHT22;28604;51.204;22.552;2023-03-01T04:55:08;-2.00;79.20
42965;DHT22;28604;51.204;22.552;2023-03-01T04:57:34;-2.00;79.30
42965;DHT22;28604;51.204;22.552;2023-03-01T05:00:00;-2.00;79.40
42965;DHT22;28604;51.204;22.552;2023-03-01T05:02:26;-2.00;79.50
42965;DHT22;28604;51.204;22.552;2023-03-01T05:04:52;-2.00;80.40
42965;DHT22;28604;51.204;22.552;2023-03-01T05:07:18;-2.00;80.70
42965;DHT22;28604;51.204;22.552;2023-03-01T05:09:47;-2.00;80.20
42965;DHT22;28604;51.204;22.552;2023-03-01T05:12:14;-2.00;80.20
42965;DHT22;28604;51.204;22.552;2023-03-01T05:14:40;-2.00;79.50
42965;DHT22;28604;51.204;22.552;2023-03-01T05:17:07;-2.00;79.60
42965;DHT22;28604;51.204;22.552;2023-03-01T05:19:33;-2.00;80.20
42965;DHT22;28604;51.204;22.552;2023-03-01T05:21:59;-2.00;79.70
42965;DHT22;28604;51.204;22.552;2023-03-01T05:24:33;-2.00;79.90
42965;DHT22;28604;51.204;22.552;2023-03-01T05:30:54;-2.00;81.00
42965;DHT22;28604;51.204;22.552;2023-03-01T05:33:20;-2.00;81.20
42965;DHT22;28604;51.204;22.552;2023-03-01T05:35:48;-2.00;81.30
42965;DHT22;28604;51.204;22.552;2023-03-01T05:38:15;-2.00;81.00
42965;DHT22;28604;51.204;22.552;2023-03-01T05:40:46;-2.00;82.00
42965;DHT22;28604;51.204;22.552;2023-03-01T05:43:13;-1.90;81.70
42965;DHT22;28604;51.204;22.552;2023-03-01T05:45:40;-1.90;81.40
42965;DHT22;28604;51.204;22.552;2023-03-01T05:48:06;-1.80;80.90
42965;DHT22;28604;51.204;22.552;2023-03-01T05:50:35;-1.80;81.60
42965;DHT22;28604;51.204;22.552;2023-03-01T05:53:19;-1.70;81.00
42965;DHT22;28604;51.204;22.552;2023-03-01T05:55:47;-1.70;81.00
42965;DHT22;28604;51.204;22.552;2023-03-01T05:58:19;-1.70;81.00
42965;DHT22;28604;51.204;22.552;2023-03-01T06:00:46;-1.60;80.40
42965;DHT22;28604;51.204;22.552;2023-03-01T06:03:14;-1.60;80.20
42965;DHT22;28604;51.204;22.552;2023-03-01T06:05:41;-1.50;80.10
42965;DHT22;28604;51.204;22.552;2023-03-01T06:08:09;-1.40;80.70
42965;DHT22;28604;51.204;22.552;2023-03-01T06:10:36;-1.30;80.20
42965;DHT22;28604;51.204;22.552;2023-03-01T06:13:02;-1.20;80.40
42965;DHT22;28604;51.204;22.552;2023-03-01T06:15:28;-1.20;80.10
42965;DHT22;28604;51.204;22.552;2023-03-01T06:17:55;-1.10;79.60
42965;DHT22;28604;51.204;22.552;2023-03-01T06:20:25;-0.90;79.30
42965;DHT22;28604;51.204;22.552;2023-03-01T06:22:51;-0.80;79.60
42965;DHT22;28604;51.204;22.552;2023-03-01T06:25:21;-0.70;79.20
42965;DHT22;28604;51.204;22.552;2023-03-01T06:27:48;-0.60;79.50
42965;DHT22;28604;51.204;22.552;2023-03-01T06:30:16;-0.50;80.00
42965;DHT22;28604;51.204;22.552;2023-03-01T06:32:43;-0.30;80.00
42965;DHT22;28604;51.204;22.552;2023-03-01T06:35:10;-0.20;80.80
42965;DHT22;28604;51.204;22.552;2023-03-01T06:37:36;0.00;80.30
42965;DHT22;28604;51.204;22.552;2023-03-01T06:40:04;0.10;80.10
42965;DHT22;28604;51.204;22.552;2023-03-01T06:42:38;0.20;80.10
42965;DHT22;28604;51.204;22.552;2023-03-01T06:45:05;0.40;80.10
42965;DHT22;28604;51.204;22.552;2023-03-01T06:47:32;0.50;80.60
42965;DHT22;28604;51.204;22.552;2023-03-01T06:50:03;0.70;80.60
42965;DHT22;28604;51.204;22.552;2023-03-01T06:52:29;0.80;80.00
42965;DHT22;28604;51.204;22.552;2023-03-01T06:54:56;1.00;79.80
42965;DHT22;28604;51.204;22.552;2023-03-01T06:57:21;1.10;79.40
42965;DHT22;28604;51.204;22.552;2023-03-01T06:59:48;1.30;79.70
42965;DHT22;28604;51.204;22.552;2023-03-01T07:02:14;1.50;80.00
42965;DHT22;28604;51.204;22.552;2023-03-01T07:04:42;1.60;80.10
42965;DHT22;28604;51.204;22.552;2023-03-01T07:07:08;1.90;80.20
42965;DHT22;28604;51.204;22.552;2023-03-01T07:09:34;2.20;80.00
42965;DHT22;28604;51.204;22.552;2023-03-01T07:12:00;2.50;79.30
42965;DHT22;28604;51.204;22.552;2023-03-01T07:14:26;2.90;78.90
42965;DHT22;28604;51.204;22.552;2023-03-01T07:16:53;3.20;78.20
42965;DHT22;28604;51.204;22.552;2023-03-01T07:19:20;3.60;77.50
42965;DHT22;28604;51.204;22.552;2023-03-01T07:21:46;4.00;76.40
42965;DHT22;28604;51.204;22.552;2023-03-01T07:24:12;4.40;75.70
42965;DHT22;28604;51.204;22.552;2023-03-01T07:26:38;4.90;74.30
42965;DHT22;28604;51.204;22.552;2023-03-01T07:29:06;5.40;72.90
42965;DHT22;28604;51.204;22.552;2023-03-01T07:31:32;5.90;71.40
42965;DHT22;28604;51.204;22.552;2023-03-01T07:33:58;6.30;71.20
42965;DHT22;28604;51.204;22.552;2023-03-01T07:36:24;6.80;68.50
42965;DHT22;28604;51.204;22.552;2023-03-01T07:38:51;7.20;67.90
42965;DHT22;28604;51.204;22.552;2023-03-01T07:41:17;7.70;66.90
42965;DHT22;28604;51.204;22.552;2023-03-01T07:43:43;8.10;65.70
42965;DHT22;28604;51.204;22.552;2023-03-01T07:46:09;8.50;64.40
42965;DHT22;28604;51.204;22.552;2023-03-01T07:48:35;8.90;63.30
42965;DHT22;28604;51.204;22.552;2023-03-01T07:51:03;9.30;65.00
42965;DHT22;28604;51.204;22.552;2023-03-01T07:53:30;9.60;62.00
42965;DHT22;28604;51.204;22.552;2023-03-01T07:56:12;10.00;61.30
42965;DHT22;28604;51.204;22.552;2023-03-01T07:58:42;10.40;60.50
42965;DHT22;28604;51.204;22.552;2023-03-01T08:01:12;10.70;59.50
42965;DHT22;28604;51.204;22.552;2023-03-01T08:03:38;11.00;58.30
42965;DHT22;28604;51.204;22.552;2023-03-01T08:06:06;11.30;56.30
42965;DHT22;28604;51.204;22.552;2023-03-01T08:08:34;11.50;57.20
42965;DHT22;28604;51.204;22.552;2023-03-01T08:11:01;11.70;56.60
42965;DHT22;28604;51.204;22.552;2023-03-01T08:13:28;12.00;57.50
42965;DHT22;28604;51.204;22.552;2023-03-01T08:15:54;12.10;54.50
42965;DHT22;28604;51.204;22.552;2023-03-01T08:18:20;12.30;56.60
42965;DHT22;28604;51.204;22.552;2023-03-01T08:20:47;12.40;54.50
42965;DHT22;28604;51.204;22.552;2023-03-01T08:23:13;12.60;56.10
42965;DHT22;28604;51.204;22.552;2023-03-01T08:25:39;12.70;55.00
42965;DHT22;28604;51.204;22.552;2023-03-01T08:28:05;12.90;52.30
42965;DHT22;28604;51.204;22.552;2023-03-01T08:30:31;13.10;53.60
42965;DHT22;28604;51.204;22.552;2023-03-01T08:32:57;13.30;52.50
42965;DHT22;28604;51.204;22.552;2023-03-01T08:35:23;13.50;50.50
42965;DHT22;28604;51.204;22.552;2023-03-01T08:37:50;13.70;50.60
42965;DHT22;28604;51.204;22.552;2023-03-01T08:40:17;14.00;50.50
42965;DHT22;28604;51.204;22.552;2023-03-01T08:42:43;14.20;49.70
42965;DHT22;28604;51.204;22.552;2023-03-01T08:45:10;14.30;49.30
42965;DHT22;28604;51.204;22.552;2023-03-01T08:47:37;14.40;49.60
42965;DHT22;28604;51.204;22.552;2023-03-01T08:50:03;14.60;49.50
42965;DHT22;28604;51.204;22.552;2023-03-01T08:52:29;14.70;49.20
42965;DHT22;28604;51.204;22.552;2023-03-01T08:54:56;14.80;51.00
42965;DHT22;28604;51.204;22.552;2023-03-01T08:57:22;14.90;48.70
42965;DHT22;28604;51.204;22.552;2023-03-01T08:59:48;15.00;48.40
42965;DHT22;28604;51.204;22.552;2023-03-01T09:02:16;15.10;49.40
42965;DHT22;28604;51.204;22.552;2023-03-01T09:04:43;15.20;49.20
42965;DHT22;28604;51.204;22.552;2023-03-01T09:07:10;15.40;48.40
42965;DHT22;28604;51.204;22.552;2023-03-01T09:09:36;15.50;46.90
42965;DHT22;28604;51.204;22.552;2023-03-01T09:12:03;15.70;47.80
42965;DHT22;28604;51.204;22.552;2023-03-01T09:14:30;15.90;46.20
42965;DHT22;28604;51.204;22.552;2023-03-01T09:16:56;16.00;46.80
42965;DHT22;28604;51.204;22.552;2023-03-01T09:19:22;16.00;45.30
42965;DHT22;28604;51.204;22.552;2023-03-01T09:21:48;16.20;45.30
42965;DHT22;28604;51.204;22.552;2023-03-01T09:24:22;16.30;45.60
42965;DHT22;28604;51.204;22.552;2023-03-01T09:26:49;16.50;46.10
42965;DHT22;28604;51.204;22.552;2023-03-01T09:29:18;16.60;45.80
42965;DHT22;28604;51.204;22.552;2023-03-01T09:31:44;16.70;45.80
42965;DHT22;28604;51.204;22.552;2023-03-01T09:34:10;16.80;44.30
42965;DHT22;28604;51.204;22.552;2023-03-01T09:36:37;16.90;43.90
42965;DHT22;28604;51.204;22.552;2023-03-01T09:39:03;17.00;44.40
42965;DHT22;28604;51.204;22.552;2023-03-01T09:42:00;17.00;44.40
42965;DHT22;28604;51.204;22.552;2023-03-01T09:44:29;17.10;43.90
42965;DHT22;28604;51.204;22.552;2023-03-01T09:46:57;17.20;44.30
42965;DHT22;28604;51.204;22.552;2023-03-01T09:49:33;17.20;44.30
42965;DHT22;28604;51.204;22.552;2023-03-01T09:52:09;17.20;43.60
42965;DHT22;28604;51.204;22.552;2023-03-01T09:54:37;17.40;43.40
42965;DHT22;28604;51.204;22.552;2023-03-01T09:57:20;17.40;43.70
42965;DHT22;28604;51.204;22.552;2023-03-01T10:02:50;17.30;43.20
42965;DHT22;28604;51.204;22.552;2023-03-01T10:08:27;17.30;43.60
42965;DHT22;28604;51.204;22.552;2023-03-01T10:10:57;17.30;42.80
42965;DHT22;28604;51.204;22.552;2023-03-01T10:16:10;17.40;42.10
42965;DHT22;28604;51.204;22.552;2023-03-01T10:18:38;17.40;43.70
42965;DHT22;28604;51.204;22.552;2023-03-01T10:21:17;17.30;42.20
42965;DHT22;28604;51.204;22.552;2023-03-01T10:23:43;17.30;42.50
42965;DHT22;28604;51.204;22.552;2023-03-01T10:26:30;17.30;43.40
42965;DHT22;28604;51.204;22.552;2023-03-01T10:29:02;17.30;43.00
42965;DHT22;28604;51.204;22.552;2023-03-01T10:31:41;17.10;43.20
42965;DHT22;28604;51.204;22.552;2023-03-01T10:34:12;17.10;44.30
42965;DHT22;28604;51.204;22.552;2023-03-01T10:36:39;17.20;42.80
42965;DHT22;28604;51.204;22.552;2023-03-01T10:39:21;17.10;42.80
42965;DHT22;28604;51.204;22.552;2023-03-01T10:41:55;17.20;42.50
42965;DHT22;28604;51.204;22.552;2023-03-01T10:44:51;17.20;43.60
42965;DHT22;28604;51.204;22.552;2023-03-01T10:47:25;17.30;45.10
42965;DHT22;28604;51.204;22.552;2023-03-01T10:49:55;17.10;43.40
42965;DHT22;28604;51.204;22.552;2023-03-01T10:52:25;17.10;43.60
42965;DHT22;28604;51.204;22.552;2023-03-01T10:55:04;17.20;43.20
42965;DHT22;28604;51.204;22.552;2023-03-01T10:57:45;17.10;43.70
42965;DHT22;28604;51.204;22.552;2023-03-01T11:00:19;17.10;43.90
42965;DHT22;28604;51.204;22.552;2023-03-01T11:02:51;17.00;42.80
42965;DHT22;28604;51.204;22.552;2023-03-01T11:05:21;17.10;43.30
42965;DHT22;28604;51.204;22.552;2023-03-01T11:07:59;17.00;44.20
42965;DHT22;28604;51.204;22.552;2023-03-01T11:10:31;16.90;42.90
42965;DHT22;28604;51.204;22.552;2023-03-01T11:13:18;16.90;43.40
42965;DHT22;28604;51.204;22.552;2023-03-01T11:15:59;16.80;42.90
42965;DHT22;28604;51.204;22.552;2023-03-01T11:18:26;16.80;43.80
42965;DHT22;28604;51.204;22.552;2023-03-01T11:20:54;16.80;43.20
42965;DHT22;28604;51.204;22.552;2023-03-01T11:23:21;16.80;42.90
42965;DHT22;28604;51.204;22.552;2023-03-01T11:25:56;16.80;43.40
42965;DHT22;28604;51.204;22.552;2023-03-01T11:28:26;16.80;43.40
42965;DHT22;28604;51.204;22.552;2023-03-01T11:33:32;16.60;43.00
42965;DHT22;28604;51.204;22.552;2023-03-01T11:36:28;16.80;42.80
42965;DHT22;28604;51.204;22.552;2023-03-01T11:38:56;16.80;44.20
42965;DHT22;28604;51.204;22.552;2023-03-01T11:41:30;16.70;43.20
42965;DHT22;28604;51.204;22.552;2023-03-01T12:00:14;16.30;42.80
42965;DHT22;28604;51.204;22.552;2023-03-01T12:11:41;16.20;43.50
42965;DHT22;28604;51.204;22.552;2023-03-01T12:22:30;15.80;45.60
42965;DHT22;28604;51.204;22.552;2023-03-01T12:28:25;15.50;46.30
42965;DHT22;28604;51.204;22.552;2023-03-01T12:34:07;15.40;45.80
42965;DHT22;28604;51.204;22.552;2023-03-01T12:48:24;15.30;48.30
42965;DHT22;28604;51.204;22.552;2023-03-01T12:50:53;15.20;47.70
42965;DHT22;28604;51.204;22.552;2023-03-01T12:53:39;15.10;47.90
42965;DHT22;28604;51.204;22.552;2023-03-01T12:56:07;15.10;48.10
42965;DHT22;28604;51.204;22.552;2023-03-01T12:59:01;15.20;47.70
42965;DHT22;28604;51.204;22.552;2023-03-01T13:02:02;15.30;48.00
42965;DHT22;28604;51.204;22.552;2023-03-01T13:07:37;15.30;47.00
42965;DHT22;28604;51.204;22.552;2023-03-01T13:17:54;15.20;47.10
42965;DHT22;28604;51.204;22.552;2023-03-01T13:23:25;15.10;47.80
42965;DHT22;28604;51.204;22.552;2023-03-01T13:26:12;14.90;47.00
42965;DHT22;28604;51.204;22.552;2023-03-01T13:33:44;14.70;48.00
42965;DHT22;28604;51.204;22.552;2023-03-01T13:36:11;14.60;48.10
42965;DHT22;28604;51.204;22.552;2023-03-01T13:47:03;14.40;48.20
42965;DHT22;28604;51.204;22.552;2023-03-01T13:49:56;14.40;48.50
42965;DHT22;28604;51.204;22.552;2023-03-01T13:52:43;14.40;48.10
42965;DHT22;28604;51.204;22.552;2023-03-01T13:57:50;14.20;48.40
42965;DHT22;28604;51.204;22.552;2023-03-01T14:00:26;14.20;49.00
42965;DHT22;28604;51.204;22.552;2023-03-01T14:03:16;14.20;49.10
42965;DHT22;28604;51.204;22.552;2023-03-01T14:05:57;14.10;49.10
42965;DHT22;28604;51.204;22.552;2023-03-01T14:08:26;14.00;49.20
42965;DHT22;28604;51.204;22.552;2023-03-01T14:11:14;13.90;49.40
42965;DHT22;28604;51.204;22.552;2023-03-01T14:17:22;13.70;48.90
42965;DHT22;28604;51.204;22.552;2023-03-01T14:19:56;13.60;48.90
42965;DHT22;28604;51.204;22.552;2023-03-01T14:22:25;13.60;49.80
42965;DHT22;28604;51.204;22.552;2023-03-01T14:24:57;13.50;50.00
42965;DHT22;28604;51.204;22.552;2023-03-01T14:27:43;13.50;50.00
42965;DHT22;28604;51.204;22.552;2023-03-01T14:30:17;13.50;50.10
42965;DHT22;28604;51.204;22.552;2023-03-01T14:32:53;13.50;49.80
42965;DHT22;28604;51.204;22.552;2023-03-01T14:35:26;13.40;49.30
42965;DHT22;28604;51.204;22.552;2023-03-01T14:37:52;13.30;49.60
42965;DHT22;28604;51.204;22.552;2023-03-01T14:40:28;13.20;49.50
42965;DHT22;28604;51.204;22.552;2023-03-01T14:42:56;13.10;49.70
42965;DHT22;28604;51.204;22.552;2023-03-01T14:45:25;13.00;50.10
42965;DHT22;28604;51.204;22.552;2023-03-01T14:47:51;12.90;50.30
42965;DHT22;28604;51.204;22.552;2023-03-01T14:50:27;12.80;50.30
42965;DHT22;28604;51.204;22.552;2023-03-01T14:52:57;12.60;50.50
42965;DHT22;28604;51.204;22.552;2023-03-01T14:55:36;12.50;50.70
42965;DHT22;28604;51.204;22.552;2023-03-01T14:58:04;12.40;50.70
42965;DHT22;28604;51.204;22.552;2023-03-01T15:00:33;12.20;50.90
42965;DHT22;28604;51.204;22.552;2023-03-01T15:03:19;12.10;51.20
42965;DHT22;28604;51.204;22.552;2023-03-01T15:05:46;12.00;51.30
42965;DHT22;28604;51.204;22.552;2023-03-01T15:08:21;11.80;51.50
42965;DHT22;28604;51.204;22.552;2023-03-01T15:11:15;11.60;51.80
42965;DHT22;28604;51.204;22.552;2023-03-01T15:13:42;11.50;52.00
42965;DHT22;28604;51.204;22.552;2023-03-01T15:16:11;11.30;52.40
42965;DHT22;28604;51.204;22.552;2023-03-01T15:18:38;11.10;52.60
42965;DHT22;28604;51.204;22.552;2023-03-01T15:21:30;11.00;52.90
42965;DHT22;28604;51.204;22.552;2023-03-01T15:26:54;10.70;53.30
42965;DHT22;28604;51.204;22.552;2023-03-01T15:29:26;10.60;53.60
42965;DHT22;28604;51.204;22.552;2023-03-01T15:32:33;10.50;53.90
42965;DHT22;28604;51.204;22.552;2023-03-01T15:35:31;10.30;54.30
42965;DHT22;28604;51.204;22.552;2023-03-01T15:37:48;10.10;54.40
42965;DHT22;28604;51.204;22.552;2023-03-01T15:40:22;10.00;54.60
42965;DHT22;28604;51.204;22.552;2023-03-01T15:43:01;9.90;54.80
42965;DHT22;28604;51.204;22.552;2023-03-01T15:45:29;9.80;55.00
42965;DHT22;28604;51.204;22.552;2023-03-01T15:47:57;9.70;55.20
42965;DHT22;28604;51.204;22.552;2023-03-01T15:50:29;9.60;55.40
42965;DHT22;28604;51.204;22.552;2023-03-01T15:52:56;9.40;55.50
42965;DHT22;28604;51.204;22.552;2023-03-01T15:55:26;9.40;55.80
42965;DHT22;28604;51.204;22.552;2023-03-01T15:58:18;9.20;55.90
42965;DHT22;28604;51.204;22.552;2023-03-01T16:00:46;9.10;56.10
42965;DHT22;28604;51.204;22.552;2023-03-01T16:03:15;9.00;56.90
42965;DHT22;28604;51.204;22.552;2023-03-01T16:05:47;8.90;56.50
42965;DHT22;28604;51.204;22.552;2023-03-01T16:08:14;8.80;57.60
42965;DHT22;28604;51.204;22.552;2023-03-01T16:10:41;8.70;57.40
42965;DHT22;28604;51.204;22.552;2023-03-01T16:13:11;8.60;57.50
42965;DHT22;28604;51.204;22.552;2023-03-01T16:15:37;8.50;57.70
42965;DHT22;28604;51.204;22.552;2023-03-01T16:18:04;8.40;57.90
42965;DHT22;28604;51.204;22.552;2023-03-01T16:20:35;8.30;58.00
42965;DHT22;28604;51.204;22.552;2023-03-01T16:23:04;8.20;58.40
42965;DHT22;28604;51.204;22.552;2023-03-01T16:25:31;8.10;58.90
42965;DHT22;28604;51.204;22.552;2023-03-01T16:27:58;8.00;59.10
42965;DHT22;28604;51.204;22.552;2023-03-01T16:30:26;7.90;59.40
42965;DHT22;28604;51.204;22.552;2023-03-01T16:32:53;7.80;59.70
42965;DHT22;28604;51.204;22.552;2023-03-01T16:35:20;7.70;59.70
42965;DHT22;28604;51.204;22.552;2023-03-01T16:37:47;7.60;60.00
42965;DHT22;28604;51.204;22.552;2023-03-01T16:40:21;7.50;60.10
42965;DHT22;28604;51.204;22.552;2023-03-01T16:42:48;7.40;60.50
42965;DHT22;28604;51.204;22.552;2023-03-01T16:45:15;7.40;60.70
42965;DHT22;28604;51.204;22.552;2023-03-01T16:47:42;7.30;60.60
42965;DHT22;28604;51.204;22.552;2023-03-01T16:50:08;7.20;60.60
42965;DHT22;28604;51.204;22.552;2023-03-01T16:52:34;7.10;60.70
42965;DHT22;28604;51.204;22.552;2023-03-01T16:55:02;6.90;61.20
42965;DHT22;28604;51.204;22.552;2023-03-01T16:57:29;6.90;61.40
42965;DHT22;28604;51.204;22.552;2023-03-01T16:59:55;6.70;61.90
42965;DHT22;28604;51.204;22.552;2023-03-01T17:02:22;6.60;62.10
42965;DHT22;28604;51.204;22.552;2023-03-01T17:04:52;6.50;62.20
42965;DHT22;28604;51.204;22.552;2023-03-01T17:07:19;6.40;62.20
42965;DHT22;28604;51.204;22.552;2023-03-01T17:09:45;6.40;61.80
42965;DHT22;28604;51.204;22.552;2023-03-01T17:12:15;6.30;62.20
42965;DHT22;28604;51.204;22.552;2023-03-01T17:14:41;6.20;62.30
42965;DHT22;28604;51.204;22.552;2023-03-01T17:17:09;6.10;62.40
42965;DHT22;28604;51.204;22.552;2023-03-01T17:19:35;6.00;62.50
42965;DHT22;28604;51.204;22.552;2023-03-01T17:22:06;5.90;62.80
42965;DHT22;28604;51.204;22.552;2023-03-01T17:24:36;5.90;62.80
42965;DHT22;28604;51.204;22.552;2023-03-01T17:27:03;5.80;63.10
42965;DHT22;28604;51.204;22.552;2023-03-01T17:29:30;5.70;63.00
42965;DHT22;28604;51.204;22.552;2023-03-01T17:31:56;5.60;63.50
42965;DHT22;28604;51.204;22.552;2023-03-01T17:34:23;5.60;63.70